Oriana — ZCDU9 — position and weather

sailwx.info

Track history (hours):
 
Tides and Currents Weather Stations Pressure Air Temp Water Temp Dewpoint Dewpoint Depression Visibility Wind Speed Wind Dir Waves Ship Positions

Oriana (Bermuda)

Last reported at 2019-Aug-19 21:39 UTC. Time now 2019-Aug-20 10:27 UTC.
Position N 36°20' W 001°44'.

Length 261 m; beam 32.2 m; draft 8.2 m.

Type: Ship. MMSI: 310529000.

Date/timePositionNaut miles runAvg speedWind from/ knotsBaromVisibWave heightAir tempDewpointWater temp
2019-Aug-19 21:39N 36°20' W 001°44'28918.2
2019-Aug-19 05:45N 36°13' W 007°42'416.9
2019-Aug-19 05:30N 36°15' W 007°47'916.6
2019-Aug-19 04:57N 36°17' W 007°58'1316.6
2019-Aug-19 04:11N 36°21' W 008°13'816.7
2019-Aug-19 03:41N 36°22' W 008°23'516.7
2019-Aug-19 03:22N 36°24' W 008°30'2216.9
2019-Aug-19 02:05N 36°30' W 008°56'1417.5
2019-Aug-19 01:17N 36°33' W 009°13'1016.3
2019-Aug-19 00:40N 36°39' W 009°23'816.5
2019-Aug-19 00:12N 36°44' W 009°29'316.8
2019-Aug-19 00:00N 36°47' W 009°32'1016.8
2019-Aug-18 23:23N 36°57' W 009°36'817.0
2019-Aug-18 22:55N 37°05' W 009°38'816.7
2019-Aug-18 22:28N 37°12' W 009°41'816.9
2019-Aug-18 22:00N 37°19' W 009°43'816.7
2019-Aug-18 21:30N 37°27' W 009°46'917.1
2019-Aug-18 21:00N 37°36' W 009°49'917.3
2019-Aug-18 20:29N 37°44' W 009°51'917.2
2019-Aug-18 19:59N 37°53' W 009°54'817.0
2019-Aug-18 19:30N 38°01' W 009°56'1016.6
2019-Aug-18 18:54N 38°11' W 009°59'716.7
2019-Aug-18 18:28N 38°18' W 010°00'816.7
2019-Aug-18 18:00N 38°25' W 010°02'816.6
2019-Aug-18 17:30N 38°33' W 010°05'816.6
2019-Aug-18 17:00N 38°42' W 010°07'816.3
2019-Aug-18 16:30N 38°50' W 010°07'816.2
2019-Aug-18 16:00N 38°58' W 010°08'816.2
2019-Aug-18 15:30N 39°06' W 010°07'816.4
2019-Aug-18 15:00N 39°14' W 010°07'49115.7
2019-Aug-17 07:48N 47°08' W 007°13'1616.5
2019-Aug-17 06:48N 47°23' W 007°03'516.7
2019-Aug-17 06:30N 47°28' W 007°00'816.7
2019-Aug-17 06:00N 47°35' W 006°54'816.8
2019-Aug-17 05:30N 47°42' W 006°47'815.7
2019-Aug-17 05:00N 47°49' W 006°41'815.7
2019-Aug-17 04:30N 47°55' W 006°35'815.4
2019-Aug-17 04:00N 48°02' W 006°30'815.4
2019-Aug-17 03:31N 48°09' W 006°24'815.2
2019-Aug-17 02:58N 48°17' W 006°19'715.3
2019-Aug-17 02:30N 48°23' W 006°14'815.5
2019-Aug-17 02:01N 48°30' W 006°09'1115.8
2019-Aug-17 01:17N 48°40' W 006°01'2416.1
2019-Aug-16 23:49N 48°58' W 005°38'8615.1
2019-Aug-16 18:08N 49°41' W 003°44'312.5
2019-Aug-16 17:56N 49°42' W 003°41'512.6
2019-Aug-16 17:30N 49°45' W 003°33'713.1
2019-Aug-16 17:00N 49°48' W 003°25'713.7
2019-Aug-16 16:30N 49°53' W 003°16'714.3
2019-Aug-16 15:59N 49°57' W 003°07'815.8
2019-Aug-16 15:31N 49°60' W 002°56'917.0
2019-Aug-16 15:00N 50°02' W 002°43'816.7
2019-Aug-16 14:30N 50°05' W 002°31'916.7
2019-Aug-16 13:56N 50°08' W 002°17'716.4
2019-Aug-16 13:30N 50°10' W 002°07'917.6
2019-Aug-16 13:00N 50°13' W 001°53'917.1
2019-Aug-16 12:30N 50°15' W 001°41'816.5
2019-Aug-16 12:01N 50°18' W 001°29'915.5
2019-Aug-16 11:26N 50°23' W 001°17'814.9
2019-Aug-16 10:54N 50°29' W 001°08'614.2
2019-Aug-16 10:31N 50°33' W 001°03'713.6
2019-Aug-16 10:01N 50°39' W 000°58'510.2
2019-Aug-16 09:30N 50°44' W 001°03'714.4
2019-Aug-16 09:01N 50°46' W 001°13'5 9.3
2019-Aug-16 08:30N 50°49' W 001°18'510.3
2019-Aug-16 08:00N 50°53' W 001°24'1 2.4
2019-Aug-16 07:28N 50°54' W 001°25'0 0.0
2019-Aug-16 06:58N 50°54' W 001°25'0 0.0
2019-Aug-16 06:28N 50°54' W 001°25'0 0.0
2019-Aug-16 05:58N 50°54' W 001°25'0 0.0
2019-Aug-16 05:28N 50°54' W 001°25'0 0.0
2019-Aug-16 04:58N 50°54' W 001°25'0 0.0
2019-Aug-16 04:28N 50°54' W 001°25'0 0.0
2019-Aug-16 03:58N 50°54' W 001°25'0 0.0
2019-Aug-16 03:28N 50°54' W 001°25'0 0.0
2019-Aug-16 02:58N 50°54' W 001°25'0 0.0
2019-Aug-16 02:28N 50°54' W 001°25'0 0.0
2019-Aug-16 01:58N 50°54' W 001°25'0 0.0
2019-Aug-16 01:28N 50°54' W 001°25'0 0.0
2019-Aug-16 00:58N 50°54' W 001°25'0 0.0
2019-Aug-16 00:28N 50°54' W 001°25'0 0.0
2019-Aug-15 23:58N 50°54' W 001°25'0 0.0
2019-Aug-15 23:28N 50°54' W 001°25'0 0.0
2019-Aug-15 22:58N 50°54' W 001°25'0 0.0
2019-Aug-15 22:28N 50°54' W 001°25'0 0.0
2019-Aug-15 21:58N 50°54' W 001°25'0 0.0
2019-Aug-15 21:28N 50°54' W 001°25'0 0.0
2019-Aug-15 20:58N 50°54' W 001°25'0 0.0
2019-Aug-15 20:28N 50°54' W 001°25'0 0.0
2019-Aug-15 19:58N 50°54' W 001°25'0 0.0
2019-Aug-15 19:28N 50°54' W 001°25'0 0.0
2019-Aug-15 18:58N 50°54' W 001°25'0 0.0
2019-Aug-15 18:28N 50°54' W 001°25'0 0.0
2019-Aug-15 17:58N 50°54' W 001°25'0 0.0
2019-Aug-15 17:28N 50°54' W 001°25'0 0.0
2019-Aug-15 16:58N 50°54' W 001°25'0 0.0
2019-Aug-15 16:28N 50°54' W 001°25'0 0.0
2019-Aug-15 15:58N 50°54' W 001°25'0 0.0
2019-Aug-15 15:28N 50°54' W 001°25'0 0.0
2019-Aug-15 14:58N 50°54' W 001°25'0 0.0
2019-Aug-15 14:28N 50°54' W 001°25'0 0.0
2019-Aug-15 13:58N 50°54' W 001°25'0 0.0
2019-Aug-15 13:28N 50°54' W 001°25'0 0.0
2019-Aug-15 12:58N 50°54' W 001°25'0 0.0
2019-Aug-15 12:28N 50°54' W 001°25'0 0.0
2019-Aug-15 11:58N 50°54' W 001°25'0 0.0
2019-Aug-15 11:28N 50°54' W 001°25'0 0.0
2019-Aug-15 10:58N 50°54' W 001°25'0 0.0
2019-Aug-15 10:28N 50°54' W 001°25'0 0.0
2019-Aug-15 09:58N 50°54' W 001°25'0 0.0
2019-Aug-15 09:28N 50°54' W 001°25'0 0.0
2019-Aug-15 08:58N 50°54' W 001°25'0 0.0
2019-Aug-15 08:28N 50°54' W 001°25'0 0.0
2019-Aug-15 07:58N 50°54' W 001°25'0 0.0
2019-Aug-15 07:28N 50°54' W 001°25'0 0.0
2019-Aug-15 06:58N 50°54' W 001°25'0 0.0
2019-Aug-15 06:28N 50°54' W 001°25'0 0.0
2019-Aug-15 05:58N 50°54' W 001°25'0 0.0
2019-Aug-15 05:28N 50°54' W 001°25'0 0.0
2019-Aug-15 04:58N 50°54' W 001°25'0 0.0
2019-Aug-15 04:28N 50°54' W 001°25'0 0.0
2019-Aug-15 03:58N 50°54' W 001°25'0 0.0
2019-Aug-15 03:28N 50°54' W 001°25'0 0.0
2019-Aug-15 02:58N 50°54' W 001°25'0 0.0
2019-Aug-15 02:28N 50°54' W 001°25'0 0.0
2019-Aug-15 01:58N 50°54' W 001°25'0 0.0
2019-Aug-15 01:28N 50°54' W 001°25'0 0.0
2019-Aug-15 00:58N 50°54' W 001°25'0 0.0
2019-Aug-15 00:28N 50°54' W 001°25'0 0.0
2019-Aug-14 23:58N 50°54' W 001°25'0 0.0
2019-Aug-14 23:28N 50°54' W 001°25'0 0.0
2019-Aug-14 22:58N 50°54' W 001°25'0 0.0
2019-Aug-14 22:28N 50°54' W 001°25'0 0.0
2019-Aug-14 21:58N 50°54' W 001°25'0 0.0
2019-Aug-14 21:28N 50°54' W 001°25'0 0.0
2019-Aug-14 20:58N 50°54' W 001°25'0 0.0
2019-Aug-14 20:28N 50°54' W 001°25'0 0.0
2019-Aug-14 19:58N 50°54' W 001°25'0 0.0
2019-Aug-14 19:28N 50°54' W 001°25'0 0.0
2019-Aug-14 18:58N 50°54' W 001°25'0 0.0
2019-Aug-14 18:28N 50°54' W 001°25'0 0.0
2019-Aug-14 17:58N 50°54' W 001°25'0 0.0
2019-Aug-14 17:28N 50°54' W 001°25'0 0.0
2019-Aug-14 16:52N 50°54' W 001°25'0 0.0
2019-Aug-14 16:28N 50°54' W 001°25'0 0.0
2019-Aug-14 15:58N 50°54' W 001°25'0 0.0
2019-Aug-14 15:28N 50°54' W 001°25'0 0.0
2019-Aug-14 14:58N 50°54' W 001°25'0 0.0
2019-Aug-14 14:28N 50°54' W 001°25'0 0.0
2019-Aug-14 13:58N 50°54' W 001°25'0 0.0
2019-Aug-14 13:28N 50°54' W 001°25'0 0.0
2019-Aug-14 12:58N 50°54' W 001°25'0 0.0
2019-Aug-14 12:28N 50°54' W 001°25'0 0.0
2019-Aug-14 11:58N 50°54' W 001°25'0 0.0
2019-Aug-14 11:28N 50°54' W 001°25'0 0.0
2019-Aug-14 10:58N 50°54' W 001°25'0 0.0
2019-Aug-14 10:28N 50°54' W 001°25'0 0.0
2019-Aug-14 09:58N 50°54' W 001°25'0 0.0
2019-Aug-14 09:28N 50°54' W 001°25'0 0.0
2019-Aug-14 08:58N 50°54' W 001°25'0 0.0
2019-Aug-14 08:28N 50°54' W 001°25'0 0.0
2019-Aug-14 07:58N 50°54' W 001°25'0 0.0
2019-Aug-14 07:28N 50°54' W 001°25'0 0.0
2019-Aug-14 06:52N 50°54' W 001°25'0 0.0
2019-Aug-14 06:28N 50°54' W 001°25'0 0.0
2019-Aug-14 05:58N 50°54' W 001°25'0 0.0
2019-Aug-14 05:28N 50°54' W 001°25'0 0.0
2019-Aug-14 04:58N 50°54' W 001°25'0 0.0
2019-Aug-14 04:28N 50°54' W 001°25'0 0.0
2019-Aug-14 03:58N 50°54' W 001°25'0 0.0
2019-Aug-14 03:19N 50°54' W 001°25'0 0.0
2019-Aug-14 02:58N 50°54' W 001°25'0 0.0
2019-Aug-14 02:19N 50°54' W 001°25'0 0.0
2019-Aug-14 01:58N 50°54' W 001°25'0 0.0
2019-Aug-14 01:25N 50°54' W 001°25'0 0.0
2019-Aug-14 00:43N 50°54' W 001°25'0 0.0
2019-Aug-14 00:28N 50°54' W 001°25'0 0.0
2019-Aug-13 23:58N 50°54' W 001°25'0 0.0
2019-Aug-13 23:28N 50°54' W 001°25'0 0.0
2019-Aug-13 22:55N 50°54' W 001°25'0 0.0
2019-Aug-13 22:28N 50°54' W 001°25'0 0.0
2019-Aug-13 21:58N 50°54' W 001°25'0 0.0
2019-Aug-13 21:28N 50°54' W 001°25'0 0.0
2019-Aug-13 20:58N 50°54' W 001°25'0 0.0
2019-Aug-13 20:28N 50°54' W 001°25'0 0.0
2019-Aug-13 19:58N 50°54' W 001°25'0 0.0
2019-Aug-13 19:28N 50°54' W 001°25'0 0.0
2019-Aug-13 18:52N 50°54' W 001°25'0 0.0
2019-Aug-13 18:28N 50°54' W 001°25'0 0.0
2019-Aug-13 17:58N 50°54' W 001°25'0 0.0
2019-Aug-13 17:28N 50°54' W 001°25'0 0.0
2019-Aug-13 16:55N 50°54' W 001°25'0 0.0
2019-Aug-13 16:28N 50°54' W 001°25'0 0.0
2019-Aug-13 15:58N 50°54' W 001°25'0 0.0
2019-Aug-13 15:28N 50°54' W 001°25'0 0.0
2019-Aug-13 14:58N 50°54' W 001°25'0 0.0
2019-Aug-13 14:28N 50°54' W 001°25'0 0.0
2019-Aug-13 13:58N 50°54' W 001°25'0 0.0
2019-Aug-13 13:28N 50°54' W 001°25'0 0.0
2019-Aug-13 12:58N 50°54' W 001°25'0 0.0
2019-Aug-13 12:28N 50°54' W 001°25'0 0.0
2019-Aug-13 11:52N 50°54' W 001°25'0 0.0
2019-Aug-13 11:28N 50°54' W 001°25'0 0.0
2019-Aug-13 10:58N 50°54' W 001°25'0 0.0
2019-Aug-13 10:28N 50°54' W 001°25'0 0.0
2019-Aug-13 09:55N 50°54' W 001°25'0 0.0
2019-Aug-13 09:28N 50°54' W 001°25'0 0.0
2019-Aug-13 08:58N 50°54' W 001°25'0 0.0
2019-Aug-13 08:28N 50°54' W 001°25'0 0.0
2019-Aug-13 07:58N 50°54' W 001°25'0 0.0
2019-Aug-13 07:25N 50°54' W 001°25'0 0.0
2019-Aug-13 06:55N 50°54' W 001°25'0 0.0
2019-Aug-13 06:28N 50°54' W 001°25'0 0.0
2019-Aug-13 05:58N 50°54' W 001°25'0 0.0
2019-Aug-13 05:28N 50°54' W 001°25'0 0.0
2019-Aug-13 04:58N 50°54' W 001°25'0 0.0
2019-Aug-13 04:28N 50°54' W 001°25'0 0.0
2019-Aug-13 03:58N 50°54' W 001°25'0 0.0
2019-Aug-13 03:25N 50°54' W 001°25'0 0.0
2019-Aug-13 02:58N 50°54' W 001°25'0 0.0
2019-Aug-13 01:55N 50°54' W 001°25'0 0.0
2019-Aug-13 01:25N 50°54' W 001°25'0 0.0
2019-Aug-13 00:58N 50°54' W 001°25'0 0.0
2019-Aug-13 00:28N 50°54' W 001°25'0 0.0
2019-Aug-12 23:55N 50°54' W 001°25'0 0.0
2019-Aug-12 23:25N 50°54' W 001°25'0 0.0
2019-Aug-12 22:58N 50°54' W 001°25'0 0.0
2019-Aug-12 22:28N 50°54' W 001°25'0 0.0
2019-Aug-12 21:58N 50°54' W 001°25'0 0.0
2019-Aug-12 21:28N 50°54' W 001°25'0 0.0
2019-Aug-12 20:58N 50°54' W 001°25'0 0.0
2019-Aug-12 20:28N 50°54' W 001°25'0 0.0
2019-Aug-12 19:58N 50°54' W 001°25'0 0.0
2019-Aug-12 19:28N 50°54' W 001°25'0 0.0
2019-Aug-12 18:58N 50°54' W 001°25'0 0.0
2019-Aug-12 18:25N 50°54' W 001°25'0 0.0
2019-Aug-12 17:58N 50°54' W 001°25'0 0.0
2019-Aug-12 17:25N 50°54' W 001°25'0 0.0
2019-Aug-12 16:58N 50°54' W 001°25'0 0.0
2019-Aug-12 16:28N 50°54' W 001°25'0 0.0
2019-Aug-12 15:58N 50°54' W 001°25'0 0.0
2019-Aug-12 15:28N 50°54' W 001°25'0 0.0
2019-Aug-12 14:58N 50°54' W 001°25'0 0.0
2019-Aug-12 14:28N 50°54' W 001°25'0 0.0
2019-Aug-12 13:55N 50°54' W 001°25'0 0.0
2019-Aug-12 13:28N 50°54' W 001°25'0 0.0
2019-Aug-12 12:55N 50°54' W 001°25'0 0.0
2019-Aug-12 12:28N 50°54' W 001°25'0 0.0
2019-Aug-12 11:55N 50°54' W 001°25'0 0.0
2019-Aug-12 11:28N 50°54' W 001°25'0 0.0
2019-Aug-12 10:58N 50°54' W 001°25'0 0.0
2019-Aug-12 10:28N 50°54' W 001°25'0 0.0
2019-Aug-12 09:58N 50°54' W 001°25'0 0.0
2019-Aug-12 09:28N 50°54' W 001°25'0 0.0
2019-Aug-12 08:58N 50°54' W 001°25'0 0.0
2019-Aug-12 08:28N 50°54' W 001°25'0 0.0
2019-Aug-12 07:58N 50°54' W 001°25'0 0.0
2019-Aug-12 07:28N 50°54' W 001°25'0 0.0
2019-Aug-12 06:58N 50°54' W 001°25'0 0.0
2019-Aug-12 06:28N 50°54' W 001°25'0 0.0
2019-Aug-12 05:58N 50°54' W 001°25'0 0.0
2019-Aug-12 05:28N 50°54' W 001°25'0 0.0
2019-Aug-12 04:58N 50°54' W 001°25'0 0.0
2019-Aug-12 04:28N 50°54' W 001°25'0 0.0
2019-Aug-12 03:58N 50°54' W 001°25'0 0.0
2019-Aug-12 03:28N 50°54' W 001°25'0 0.0
2019-Aug-12 02:58N 50°54' W 001°25'0 0.0
2019-Aug-12 02:28N 50°54' W 001°25'0 0.0
2019-Aug-12 01:58N 50°54' W 001°25'0 0.0
2019-Aug-12 01:28N 50°54' W 001°25'0 0.0
2019-Aug-12 00:58N 50°54' W 001°25'0 0.0
2019-Aug-12 00:28N 50°54' W 001°25'0 0.0
2019-Aug-11 23:58N 50°54' W 001°25'0 0.0
2019-Aug-11 23:26N 50°54' W 001°25'0 0.0
2019-Aug-11 22:58N 50°54' W 001°25'0 0.0
2019-Aug-11 22:28N 50°54' W 001°25'0 0.0
2019-Aug-11 21:58N 50°54' W 001°25'0 0.0
2019-Aug-11 21:25N 50°54' W 001°25'0 0.0
2019-Aug-11 20:58N 50°54' W 001°25'0 0.0
2019-Aug-11 20:28N 50°54' W 001°25'0 0.0
2019-Aug-11 19:58N 50°54' W 001°25'0 0.0
2019-Aug-11 19:25N 50°54' W 001°25'0 0.0
2019-Aug-11 18:58N 50°54' W 001°25'0 0.0
2019-Aug-11 18:28N 50°54' W 001°25'0 0.0
2019-Aug-11 17:58N 50°54' W 001°25'0 0.0
2019-Aug-11 17:28N 50°54' W 001°25'0 0.0
2019-Aug-11 16:58N 50°54' W 001°25'0 0.0
2019-Aug-11 16:28N 50°54' W 001°25'0 0.0
2019-Aug-11 15:58N 50°54' W 001°25'0 0.0
2019-Aug-11 15:30N 50°54' W 001°25'0 0.0
2019-Aug-11 15:01N 50°54' W 001°25'0 0.0
2019-Aug-11 14:31N 50°54' W 001°25'0 0.0
2019-Aug-11 13:58N 50°54' W 001°25'0 0.0
2019-Aug-11 13:28N 50°54' W 001°25'0 0.0
2019-Aug-11 12:59N 50°54' W 001°25'0 0.0
2019-Aug-11 12:29N 50°54' W 001°25'0 0.0
2019-Aug-11 11:59N 50°54' W 001°25'0 0.0
2019-Aug-11 11:29N 50°54' W 001°25'0 0.0
2019-Aug-11 10:56N 50°54' W 001°25'0 0.0
2019-Aug-11 10:29N 50°54' W 001°25'0 0.0
2019-Aug-11 09:59N 50°54' W 001°25'0 0.0
2019-Aug-11 09:26N 50°54' W 001°25'0 0.0
2019-Aug-11 08:59N 50°54' W 001°25'0 0.0
2019-Aug-11 08:26N 50°54' W 001°25'0 0.0
2019-Aug-11 07:59N 50°54' W 001°25'0 0.0
2019-Aug-11 07:29N 50°54' W 001°25'0 0.0
2019-Aug-11 06:59N 50°54' W 001°25'0 0.0
2019-Aug-11 06:26N 50°54' W 001°25'0 0.0
2019-Aug-11 05:56N 50°54' W 001°25'0 0.0
2019-Aug-11 05:30N 50°54' W 001°25'0 0.0
2019-Aug-11 05:01N 50°54' W 001°25'0 0.0
2019-Aug-11 04:30N 50°54' W 001°25'0 0.0
2019-Aug-11 04:00N 50°54' W 001°25'0 0.0
2019-Aug-11 03:31N 50°54' W 001°25'0 0.0
2019-Aug-11 03:00N 50°54' W 001°25'0 0.0
2019-Aug-11 02:24N 50°54' W 001°25'0 0.0
2019-Aug-11 02:00N 50°54' W 001°25'0 0.0
2019-Aug-11 01:30N 50°54' W 001°25'0 0.0
2019-Aug-11 00:54N 50°54' W 001°25'0 0.0
2019-Aug-11 00:30N 50°54' W 001°25'0 0.0
2019-Aug-10 23:55N 50°54' W 001°25'0 0.0
2019-Aug-10 23:30N 50°54' W 001°25'0 0.0
2019-Aug-10 23:00N 50°54' W 001°25'0 0.0
2019-Aug-10 22:30N 50°54' W 001°25'0 0.0
2019-Aug-10 22:00N 50°54' W 001°25'0 0.0
2019-Aug-10 21:31N 50°54' W 001°25'0 0.0
2019-Aug-10 21:01N 50°54' W 001°25'0 0.0
2019-Aug-10 20:30N 50°54' W 001°25'0 0.0
2019-Aug-10 20:00N 50°54' W 001°25'0 0.0
2019-Aug-10 19:30N 50°54' W 001°25'0 0.0
2019-Aug-10 19:00N 50°54' W 001°25'0 0.0
2019-Aug-10 18:27N 50°54' W 001°25'0 0.0
2019-Aug-10 18:00N 50°54' W 001°25'0 0.0
2019-Aug-10 17:30N 50°54' W 001°25'0 0.0
2019-Aug-10 17:00N 50°54' W 001°25'0 0.0
2019-Aug-10 16:30N 50°54' W 001°25'0 0.0
2019-Aug-10 16:00N 50°54' W 001°25'0 0.0
2019-Aug-10 15:30N 50°54' W 001°25'0 0.0
2019-Aug-10 15:00N 50°54' W 001°25'0 0.0
2019-Aug-10 14:30N 50°54' W 001°25'0 0.0
2019-Aug-10 13:57N 50°54' W 001°25'0 0.0
2019-Aug-10 13:22N 50°54' W 001°25'0 0.0
2019-Aug-10 12:57N 50°54' W 001°25'0 0.0
2019-Aug-10 12:30N 50°54' W 001°25'0 0.0
2019-Aug-10 11:54N 50°54' W 001°25'0 0.0
2019-Aug-10 11:30N 50°54' W 001°25'0 0.0
2019-Aug-10 10:58N 50°54' W 001°25'0 0.0
2019-Aug-10 10:27N 50°54' W 001°25'0 0.0
2019-Aug-10 10:01N 50°54' W 001°25'0 0.0
2019-Aug-10 09:04N 50°54' W 001°25'0 0.0
2019-Aug-10 07:15N 50°54' W 001°25'0 0.0
2019-Aug-10 07:00N 50°54' W 001°25'0 0.0
2019-Aug-10 06:29N 50°54' W 001°25'0 0.0
2019-Aug-10 05:53N 50°54' W 001°25'0 0.0
2019-Aug-10 05:29N 50°54' W 001°25'0 0.0
2019-Aug-10 04:56N 50°54' W 001°25'0 0.0
2019-Aug-10 04:26N 50°54' W 001°25'0 0.0
2019-Aug-10 03:59N 50°54' W 001°25'0 0.0
2019-Aug-10 03:29N 50°54' W 001°25'0 0.0
2019-Aug-10 02:56N 50°54' W 001°25'0 0.0
2019-Aug-10 02:29N 50°54' W 001°25'0 0.0
2019-Aug-10 01:59N 50°54' W 001°25'0 0.0
2019-Aug-10 01:29N 50°54' W 001°25'0 0.0
2019-Aug-10 00:56N 50°54' W 001°25'0 0.0
2019-Aug-10 00:29N 50°54' W 001°25'0 0.0
2019-Aug-09 23:59N 50°54' W 001°25'0 0.0
2019-Aug-09 23:30N 50°54' W 001°25'0 0.0
2019-Aug-09 22:59N 50°54' W 001°25'0 0.0
2019-Aug-09 22:29N 50°54' W 001°25'0 0.0
2019-Aug-09 21:59N 50°54' W 001°25'  
Track history (hours):
 
Tides and Currents Weather Stations Pressure Air Temp Water Temp Dewpoint Dewpoint Depression Visibility Wind Speed Wind Dir Waves Ship Positions

Oriana (Bermuda)

Last reported at 2019-Aug-19 21:39 UTC. Time now 2019-Aug-20 10:27 UTC.
Position N 36°20' W 001°44'.

Length 261 m; beam 32.2 m; draft 8.2 m.

Type: Ship. MMSI: 310529000.

Date/timePositionNaut miles runAvg speedWind from/ knotsBaromVisibWave heightAir tempDewpointWater temp
2019-Aug-19 21:39N 36°20' W 001°44'28918.2
2019-Aug-19 05:45N 36°13' W 007°42'416.9
2019-Aug-19 05:30N 36°15' W 007°47'916.6
2019-Aug-19 04:57N 36°17' W 007°58'1316.6
2019-Aug-19 04:11N 36°21' W 008°13'816.7
2019-Aug-19 03:41N 36°22' W 008°23'516.7
2019-Aug-19 03:22N 36°24' W 008°30'2216.9
2019-Aug-19 02:05N 36°30' W 008°56'1417.5
2019-Aug-19 01:17N 36°33' W 009°13'1016.3
2019-Aug-19 00:40N 36°39' W 009°23'816.5
2019-Aug-19 00:12N 36°44' W 009°29'316.8
2019-Aug-19 00:00N 36°47' W 009°32'1016.8
2019-Aug-18 23:23N 36°57' W 009°36'817.0
2019-Aug-18 22:55N 37°05' W 009°38'816.7
2019-Aug-18 22:28N 37°12' W 009°41'816.9
2019-Aug-18 22:00N 37°19' W 009°43'816.7
2019-Aug-18 21:30N 37°27' W 009°46'917.1
2019-Aug-18 21:00N 37°36' W 009°49'917.3
2019-Aug-18 20:29N 37°44' W 009°51'917.2
2019-Aug-18 19:59N 37°53' W 009°54'817.0
2019-Aug-18 19:30N 38°01' W 009°56'1016.6
2019-Aug-18 18:54N 38°11' W 009°59'716.7
2019-Aug-18 18:28N 38°18' W 010°00'816.7
2019-Aug-18 18:00N 38°25' W 010°02'816.6
2019-Aug-18 17:30N 38°33' W 010°05'816.6
2019-Aug-18 17:00N 38°42' W 010°07'816.3
2019-Aug-18 16:30N 38°50' W 010°07'816.2
2019-Aug-18 16:00N 38°58' W 010°08'816.2
2019-Aug-18 15:30N 39°06' W 010°07'816.4
2019-Aug-18 15:00N 39°14' W 010°07'49115.7
2019-Aug-17 07:48N 47°08' W 007°13'1616.5
2019-Aug-17 06:48N 47°23' W 007°03'516.7
2019-Aug-17 06:30N 47°28' W 007°00'816.7
2019-Aug-17 06:00N 47°35' W 006°54'816.8
2019-Aug-17 05:30N 47°42' W 006°47'815.7
2019-Aug-17 05:00N 47°49' W 006°41'815.7
2019-Aug-17 04:30N 47°55' W 006°35'815.4
2019-Aug-17 04:00N 48°02' W 006°30'815.4
2019-Aug-17 03:31N 48°09' W 006°24'815.2
2019-Aug-17 02:58N 48°17' W 006°19'715.3
2019-Aug-17 02:30N 48°23' W 006°14'815.5
2019-Aug-17 02:01N 48°30' W 006°09'1115.8
2019-Aug-17 01:17N 48°40' W 006°01'2416.1
2019-Aug-16 23:49N 48°58' W 005°38'8615.1
2019-Aug-16 18:08N 49°41' W 003°44'312.5
2019-Aug-16 17:56N 49°42' W 003°41'512.6
2019-Aug-16 17:30N 49°45' W 003°33'713.1
2019-Aug-16 17:00N 49°48' W 003°25'713.7
2019-Aug-16 16:30N 49°53' W 003°16'714.3
2019-Aug-16 15:59N 49°57' W 003°07'815.8
2019-Aug-16 15:31N 49°60' W 002°56'917.0
2019-Aug-16 15:00N 50°02' W 002°43'816.7
2019-Aug-16 14:30N 50°05' W 002°31'916.7
2019-Aug-16 13:56N 50°08' W 002°17'716.4
2019-Aug-16 13:30N 50°10' W 002°07'917.6
2019-Aug-16 13:00N 50°13' W 001°53'917.1
2019-Aug-16 12:30N 50°15' W 001°41'816.5
2019-Aug-16 12:01N 50°18' W 001°29'915.5
2019-Aug-16 11:26N 50°23' W 001°17'814.9
2019-Aug-16 10:54N 50°29' W 001°08'614.2
2019-Aug-16 10:31N 50°33' W 001°03'713.6
2019-Aug-16 10:01N 50°39' W 000°58'510.2
2019-Aug-16 09:30N 50°44' W 001°03'714.4
2019-Aug-16 09:01N 50°46' W 001°13'5 9.3
2019-Aug-16 08:30N 50°49' W 001°18'510.3
2019-Aug-16 08:00N 50°53' W 001°24'1 2.4
2019-Aug-16 07:28N 50°54' W 001°25'0 0.0
2019-Aug-16 06:58N 50°54' W 001°25'0 0.0
2019-Aug-16 06:28N 50°54' W 001°25'0 0.0
2019-Aug-16 05:58N 50°54' W 001°25'0 0.0
2019-Aug-16 05:28N 50°54' W 001°25'0 0.0
2019-Aug-16 04:58N 50°54' W 001°25'0 0.0
2019-Aug-16 04:28N 50°54' W 001°25'0 0.0
2019-Aug-16 03:58N 50°54' W 001°25'0 0.0
2019-Aug-16 03:28N 50°54' W 001°25'0 0.0
2019-Aug-16 02:58N 50°54' W 001°25'0 0.0
2019-Aug-16 02:28N 50°54' W 001°25'0 0.0
2019-Aug-16 01:58N 50°54' W 001°25'0 0.0
2019-Aug-16 01:28N 50°54' W 001°25'0 0.0
2019-Aug-16 00:58N 50°54' W 001°25'0 0.0
2019-Aug-16 00:28N 50°54' W 001°25'0 0.0
2019-Aug-15 23:58N 50°54' W 001°25'0 0.0
2019-Aug-15 23:28N 50°54' W 001°25'0 0.0
2019-Aug-15 22:58N 50°54' W 001°25'0 0.0
2019-Aug-15 22:28N 50°54' W 001°25'0 0.0
2019-Aug-15 21:58N 50°54' W 001°25'0 0.0
2019-Aug-15 21:28N 50°54' W 001°25'0 0.0
2019-Aug-15 20:58N 50°54' W 001°25'0 0.0
2019-Aug-15 20:28N 50°54' W 001°25'0 0.0
2019-Aug-15 19:58N 50°54' W 001°25'0 0.0
2019-Aug-15 19:28N 50°54' W 001°25'0 0.0
2019-Aug-15 18:58N 50°54' W 001°25'0 0.0
2019-Aug-15 18:28N 50°54' W 001°25'0 0.0
2019-Aug-15 17:58N 50°54' W 001°25'0 0.0
2019-Aug-15 17:28N 50°54' W 001°25'0 0.0
2019-Aug-15 16:58N 50°54' W 001°25'0 0.0
2019-Aug-15 16:28N 50°54' W 001°25'0 0.0
2019-Aug-15 15:58N 50°54' W 001°25'0 0.0
2019-Aug-15 15:28N 50°54' W 001°25'0 0.0
2019-Aug-15 14:58N 50°54' W 001°25'0 0.0
2019-Aug-15 14:28N 50°54' W 001°25'0 0.0
2019-Aug-15 13:58N 50°54' W 001°25'0 0.0
2019-Aug-15 13:28N 50°54' W 001°25'0 0.0
2019-Aug-15 12:58N 50°54' W 001°25'0 0.0
2019-Aug-15 12:28N 50°54' W 001°25'0 0.0
2019-Aug-15 11:58N 50°54' W 001°25'0 0.0
2019-Aug-15 11:28N 50°54' W 001°25'0 0.0
2019-Aug-15 10:58N 50°54' W 001°25'0 0.0
2019-Aug-15 10:28N 50°54' W 001°25'0 0.0
2019-Aug-15 09:58N 50°54' W 001°25'0 0.0
2019-Aug-15 09:28N 50°54' W 001°25'0 0.0
2019-Aug-15 08:58N 50°54' W 001°25'0 0.0
2019-Aug-15 08:28N 50°54' W 001°25'0 0.0
2019-Aug-15 07:58N 50°54' W 001°25'0 0.0
2019-Aug-15 07:28N 50°54' W 001°25'0 0.0
2019-Aug-15 06:58N 50°54' W 001°25'0 0.0
2019-Aug-15 06:28N 50°54' W 001°25'0 0.0
2019-Aug-15 05:58N 50°54' W 001°25'0 0.0
2019-Aug-15 05:28N 50°54' W 001°25'0 0.0
2019-Aug-15 04:58N 50°54' W 001°25'0 0.0
2019-Aug-15 04:28N 50°54' W 001°25'0 0.0
2019-Aug-15 03:58N 50°54' W 001°25'0 0.0
2019-Aug-15 03:28N 50°54' W 001°25'0 0.0
2019-Aug-15 02:58N 50°54' W 001°25'0 0.0
2019-Aug-15 02:28N 50°54' W 001°25'0 0.0
2019-Aug-15 01:58N 50°54' W 001°25'0 0.0
2019-Aug-15 01:28N 50°54' W 001°25'0 0.0
2019-Aug-15 00:58N 50°54' W 001°25'0 0.0
2019-Aug-15 00:28N 50°54' W 001°25'0 0.0
2019-Aug-14 23:58N 50°54' W 001°25'0 0.0
2019-Aug-14 23:28N 50°54' W 001°25'0 0.0
2019-Aug-14 22:58N 50°54' W 001°25'0 0.0
2019-Aug-14 22:28N 50°54' W 001°25'0 0.0
2019-Aug-14 21:58N 50°54' W 001°25'0 0.0
2019-Aug-14 21:28N 50°54' W 001°25'0 0.0
2019-Aug-14 20:58N 50°54' W 001°25'0 0.0
2019-Aug-14 20:28N 50°54' W 001°25'0 0.0
2019-Aug-14 19:58N 50°54' W 001°25'0 0.0
2019-Aug-14 19:28N 50°54' W 001°25'0 0.0
2019-Aug-14 18:58N 50°54' W 001°25'0 0.0
2019-Aug-14 18:28N 50°54' W 001°25'0 0.0
2019-Aug-14 17:58N 50°54' W 001°25'0 0.0
2019-Aug-14 17:28N 50°54' W 001°25'0 0.0
2019-Aug-14 16:52N 50°54' W 001°25'0 0.0
2019-Aug-14 16:28N 50°54' W 001°25'0 0.0
2019-Aug-14 15:58N 50°54' W 001°25'0 0.0
2019-Aug-14 15:28N 50°54' W 001°25'0 0.0
2019-Aug-14 14:58N 50°54' W 001°25'0 0.0
2019-Aug-14 14:28N 50°54' W 001°25'0 0.0
2019-Aug-14 13:58N 50°54' W 001°25'0 0.0
2019-Aug-14 13:28N 50°54' W 001°25'0 0.0
2019-Aug-14 12:58N 50°54' W 001°25'0 0.0
2019-Aug-14 12:28N 50°54' W 001°25'0 0.0
2019-Aug-14 11:58N 50°54' W 001°25'0 0.0
2019-Aug-14 11:28N 50°54' W 001°25'0 0.0
2019-Aug-14 10:58N 50°54' W 001°25'0 0.0
2019-Aug-14 10:28N 50°54' W 001°25'0 0.0
2019-Aug-14 09:58N 50°54' W 001°25'0 0.0
2019-Aug-14 09:28N 50°54' W 001°25'0 0.0
2019-Aug-14 08:58N 50°54' W 001°25'0 0.0
2019-Aug-14 08:28N 50°54' W 001°25'0 0.0
2019-Aug-14 07:58N 50°54' W 001°25'0 0.0
2019-Aug-14 07:28N 50°54' W 001°25'0 0.0
2019-Aug-14 06:52N 50°54' W 001°25'0 0.0
2019-Aug-14 06:28N 50°54' W 001°25'0 0.0
2019-Aug-14 05:58N 50°54' W 001°25'0 0.0
2019-Aug-14 05:28N 50°54' W 001°25'0 0.0
2019-Aug-14 04:58N 50°54' W 001°25'0 0.0
2019-Aug-14 04:28N 50°54' W 001°25'0 0.0
2019-Aug-14 03:58N 50°54' W 001°25'0 0.0
2019-Aug-14 03:19N 50°54' W 001°25'0 0.0
2019-Aug-14 02:58N 50°54' W 001°25'0 0.0
2019-Aug-14 02:19N 50°54' W 001°25'0 0.0
2019-Aug-14 01:58N 50°54' W 001°25'0 0.0
2019-Aug-14 01:25N 50°54' W 001°25'0 0.0
2019-Aug-14 00:43N 50°54' W 001°25'0 0.0
2019-Aug-14 00:28N 50°54' W 001°25'0 0.0
2019-Aug-13 23:58N 50°54' W 001°25'0 0.0
2019-Aug-13 23:28N 50°54' W 001°25'0 0.0
2019-Aug-13 22:55N 50°54' W 001°25'0 0.0
2019-Aug-13 22:28N 50°54' W 001°25'0 0.0
2019-Aug-13 21:58N 50°54' W 001°25'0 0.0
2019-Aug-13 21:28N 50°54' W 001°25'0 0.0
2019-Aug-13 20:58N 50°54' W 001°25'0 0.0
2019-Aug-13 20:28N 50°54' W 001°25'0 0.0
2019-Aug-13 19:58N 50°54' W 001°25'0 0.0
2019-Aug-13 19:28N 50°54' W 001°25'0 0.0
2019-Aug-13 18:52N 50°54' W 001°25'0 0.0
2019-Aug-13 18:28N 50°54' W 001°25'0 0.0
2019-Aug-13 17:58N 50°54' W 001°25'0 0.0
2019-Aug-13 17:28N 50°54' W 001°25'0 0.0
2019-Aug-13 16:55N 50°54' W 001°25'0 0.0
2019-Aug-13 16:28N 50°54' W 001°25'0 0.0
2019-Aug-13 15:58N 50°54' W 001°25'0 0.0
2019-Aug-13 15:28N 50°54' W 001°25'0 0.0
2019-Aug-13 14:58N 50°54' W 001°25'0 0.0
2019-Aug-13 14:28N 50°54' W 001°25'0 0.0
2019-Aug-13 13:58N 50°54' W 001°25'0 0.0
2019-Aug-13 13:28N 50°54' W 001°25'0 0.0
2019-Aug-13 12:58N 50°54' W 001°25'0 0.0
2019-Aug-13 12:28N 50°54' W 001°25'0 0.0
2019-Aug-13 11:52N 50°54' W 001°25'0 0.0
2019-Aug-13 11:28N 50°54' W 001°25'0 0.0
2019-Aug-13 10:58N 50°54' W 001°25'0 0.0
2019-Aug-13 10:28N 50°54' W 001°25'0 0.0
2019-Aug-13 09:55N 50°54' W 001°25'0 0.0
2019-Aug-13 09:28N 50°54' W 001°25'0 0.0
2019-Aug-13 08:58N 50°54' W 001°25'0 0.0
2019-Aug-13 08:28N 50°54' W 001°25'0 0.0
2019-Aug-13 07:58N 50°54' W 001°25'0 0.0
2019-Aug-13 07:25N 50°54' W 001°25'0 0.0
2019-Aug-13 06:55N 50°54' W 001°25'0 0.0
2019-Aug-13 06:28N 50°54' W 001°25'0 0.0
2019-Aug-13 05:58N 50°54' W 001°25'0 0.0
2019-Aug-13 05:28N 50°54' W 001°25'0 0.0
2019-Aug-13 04:58N 50°54' W 001°25'0 0.0
2019-Aug-13 04:28N 50°54' W 001°25'0 0.0
2019-Aug-13 03:58N 50°54' W 001°25'0 0.0
2019-Aug-13 03:25N 50°54' W 001°25'0 0.0
2019-Aug-13 02:58N 50°54' W 001°25'0 0.0
2019-Aug-13 01:55N 50°54' W 001°25'0 0.0
2019-Aug-13 01:25N 50°54' W 001°25'0 0.0
2019-Aug-13 00:58N 50°54' W 001°25'0 0.0
2019-Aug-13 00:28N 50°54' W 001°25'0 0.0
2019-Aug-12 23:55N 50°54' W 001°25'0 0.0
2019-Aug-12 23:25N 50°54' W 001°25'0 0.0
2019-Aug-12 22:58N 50°54' W 001°25'0 0.0
2019-Aug-12 22:28N 50°54' W 001°25'0 0.0
2019-Aug-12 21:58N 50°54' W 001°25'0 0.0
2019-Aug-12 21:28N 50°54' W 001°25'0 0.0
2019-Aug-12 20:58N 50°54' W 001°25'0 0.0
2019-Aug-12 20:28N 50°54' W 001°25'0 0.0
2019-Aug-12 19:58N 50°54' W 001°25'0 0.0
2019-Aug-12 19:28N 50°54' W 001°25'0 0.0
2019-Aug-12 18:58N 50°54' W 001°25'0 0.0
2019-Aug-12 18:25N 50°54' W 001°25'0 0.0
2019-Aug-12 17:58N 50°54' W 001°25'0 0.0
2019-Aug-12 17:25N 50°54' W 001°25'0 0.0
2019-Aug-12 16:58N 50°54' W 001°25'0 0.0
2019-Aug-12 16:28N 50°54' W 001°25'0 0.0
2019-Aug-12 15:58N 50°54' W 001°25'0 0.0
2019-Aug-12 15:28N 50°54' W 001°25'0 0.0
2019-Aug-12 14:58N 50°54' W 001°25'0 0.0
2019-Aug-12 14:28N 50°54' W 001°25'0 0.0
2019-Aug-12 13:55N 50°54' W 001°25'0 0.0
2019-Aug-12 13:28N 50°54' W 001°25'0 0.0
2019-Aug-12 12:55N 50°54' W 001°25'0 0.0
2019-Aug-12 12:28N 50°54' W 001°25'0 0.0
2019-Aug-12 11:55N 50°54' W 001°25'0 0.0
2019-Aug-12 11:28N 50°54' W 001°25'0 0.0
2019-Aug-12 10:58N 50°54' W 001°25'0 0.0
2019-Aug-12 10:28N 50°54' W 001°25'0 0.0
2019-Aug-12 09:58N 50°54' W 001°25'0 0.0
2019-Aug-12 09:28N 50°54' W 001°25'0 0.0
2019-Aug-12 08:58N 50°54' W 001°25'0 0.0
2019-Aug-12 08:28N 50°54' W 001°25'0 0.0
2019-Aug-12 07:58N 50°54' W 001°25'0 0.0
2019-Aug-12 07:28N 50°54' W 001°25'0 0.0
2019-Aug-12 06:58N 50°54' W 001°25'0 0.0
2019-Aug-12 06:28N 50°54' W 001°25'0 0.0
2019-Aug-12 05:58N 50°54' W 001°25'0 0.0
2019-Aug-12 05:28N 50°54' W 001°25'0 0.0
2019-Aug-12 04:58N 50°54' W 001°25'0 0.0
2019-Aug-12 04:28N 50°54' W 001°25'0 0.0
2019-Aug-12 03:58N 50°54' W 001°25'0 0.0
2019-Aug-12 03:28N 50°54' W 001°25'0 0.0
2019-Aug-12 02:58N 50°54' W 001°25'0 0.0
2019-Aug-12 02:28N 50°54' W 001°25'0 0.0
2019-Aug-12 01:58N 50°54' W 001°25'0 0.0
2019-Aug-12 01:28N 50°54' W 001°25'0 0.0
2019-Aug-12 00:58N 50°54' W 001°25'0 0.0
2019-Aug-12 00:28N 50°54' W 001°25'0 0.0
2019-Aug-11 23:58N 50°54' W 001°25'0 0.0
2019-Aug-11 23:26N 50°54' W 001°25'0 0.0
2019-Aug-11 22:58N 50°54' W 001°25'0 0.0
2019-Aug-11 22:28N 50°54' W 001°25'0 0.0
2019-Aug-11 21:58N 50°54' W 001°25'0 0.0
2019-Aug-11 21:25N 50°54' W 001°25'0 0.0
2019-Aug-11 20:58N 50°54' W 001°25'0 0.0
2019-Aug-11 20:28N 50°54' W 001°25'0 0.0
2019-Aug-11 19:58N 50°54' W 001°25'0 0.0
2019-Aug-11 19:25N 50°54' W 001°25'0 0.0
2019-Aug-11 18:58N 50°54' W 001°25'0 0.0
2019-Aug-11 18:28N 50°54' W 001°25'0 0.0
2019-Aug-11 17:58N 50°54' W 001°25'0 0.0
2019-Aug-11 17:28N 50°54' W 001°25'0 0.0
2019-Aug-11 16:58N 50°54' W 001°25'0 0.0
2019-Aug-11 16:28N 50°54' W 001°25'0 0.0
2019-Aug-11 15:58N 50°54' W 001°25'0 0.0
2019-Aug-11 15:30N 50°54' W 001°25'0 0.0
2019-Aug-11 15:01N 50°54' W 001°25'0 0.0
2019-Aug-11 14:31N 50°54' W 001°25'0 0.0
2019-Aug-11 13:58N 50°54' W 001°25'0 0.0
2019-Aug-11 13:28N 50°54' W 001°25'0 0.0
2019-Aug-11 12:59N 50°54' W 001°25'0 0.0
2019-Aug-11 12:29N 50°54' W 001°25'0 0.0
2019-Aug-11 11:59N 50°54' W 001°25'0 0.0
2019-Aug-11 11:29N 50°54' W 001°25'0 0.0
2019-Aug-11 10:56N 50°54' W 001°25'0 0.0
2019-Aug-11 10:29N 50°54' W 001°25'0 0.0
2019-Aug-11 09:59N 50°54' W 001°25'0 0.0
2019-Aug-11 09:26N 50°54' W 001°25'0 0.0
2019-Aug-11 08:59N 50°54' W 001°25'0 0.0
2019-Aug-11 08:26N 50°54' W 001°25'0 0.0
2019-Aug-11 07:59N 50°54' W 001°25'0 0.0
2019-Aug-11 07:29N 50°54' W 001°25'0 0.0
2019-Aug-11 06:59N 50°54' W 001°25'0 0.0
2019-Aug-11 06:26N 50°54' W 001°25'0 0.0
2019-Aug-11 05:56N 50°54' W 001°25'0 0.0
2019-Aug-11 05:30N 50°54' W 001°25'0 0.0
2019-Aug-11 05:01N 50°54' W 001°25'0 0.0
2019-Aug-11 04:30N 50°54' W 001°25'0 0.0
2019-Aug-11 04:00N 50°54' W 001°25'0 0.0
2019-Aug-11 03:31N 50°54' W 001°25'0 0.0
2019-Aug-11 03:00N 50°54' W 001°25'0 0.0
2019-Aug-11 02:24N 50°54' W 001°25'0 0.0
2019-Aug-11 02:00N 50°54' W 001°25'0 0.0
2019-Aug-11 01:30N 50°54' W 001°25'0 0.0
2019-Aug-11 00:54N 50°54' W 001°25'0 0.0
2019-Aug-11 00:30N 50°54' W 001°25'0 0.0
2019-Aug-10 23:55N 50°54' W 001°25'0 0.0
2019-Aug-10 23:30N 50°54' W 001°25'0 0.0
2019-Aug-10 23:00N 50°54' W 001°25'0 0.0
2019-Aug-10 22:30N 50°54' W 001°25'0 0.0
2019-Aug-10 22:00N 50°54' W 001°25'0 0.0
2019-Aug-10 21:31N 50°54' W 001°25'0 0.0
2019-Aug-10 21:01N 50°54' W 001°25'0 0.0
2019-Aug-10 20:30N 50°54' W 001°25'0 0.0
2019-Aug-10 20:00N 50°54' W 001°25'0 0.0
2019-Aug-10 19:30N 50°54' W 001°25'0 0.0
2019-Aug-10 19:00N 50°54' W 001°25'0 0.0
2019-Aug-10 18:27N 50°54' W 001°25'0 0.0
2019-Aug-10 18:00N 50°54' W 001°25'0 0.0
2019-Aug-10 17:30N 50°54' W 001°25'0 0.0
2019-Aug-10 17:00N 50°54' W 001°25'0 0.0
2019-Aug-10 16:30N 50°54' W 001°25'0 0.0
2019-Aug-10 16:00N 50°54' W 001°25'0 0.0
2019-Aug-10 15:30N 50°54' W 001°25'0 0.0
2019-Aug-10 15:00N 50°54' W 001°25'0 0.0
2019-Aug-10 14:30N 50°54' W 001°25'0 0.0
2019-Aug-10 13:57N 50°54' W 001°25'0 0.0
2019-Aug-10 13:22N 50°54' W 001°25'0 0.0
2019-Aug-10 12:57N 50°54' W 001°25'0 0.0
2019-Aug-10 12:30N 50°54' W 001°25'0 0.0
2019-Aug-10 11:54N 50°54' W 001°25'0 0.0
2019-Aug-10 11:30N 50°54' W 001°25'0 0.0
2019-Aug-10 10:58N 50°54' W 001°25'0 0.0
2019-Aug-10 10:27N 50°54' W 001°25'0 0.0
2019-Aug-10 10:01N 50°54' W 001°25'0 0.0
2019-Aug-10 09:04N 50°54' W 001°25'0 0.0
2019-Aug-10 07:15N 50°54' W 001°25'0 0.0
2019-Aug-10 07:00N 50°54' W 001°25'0 0.0
2019-Aug-10 06:29N 50°54' W 001°25'0 0.0
2019-Aug-10 05:53N 50°54' W 001°25'0 0.0
2019-Aug-10 05:29N 50°54' W 001°25'0 0.0
2019-Aug-10 04:56N 50°54' W 001°25'0 0.0
2019-Aug-10 04:26N 50°54' W 001°25'0 0.0
2019-Aug-10 03:59N 50°54' W 001°25'0 0.0
2019-Aug-10 03:29N 50°54' W 001°25'0 0.0
2019-Aug-10 02:56N 50°54' W 001°25'0 0.0
2019-Aug-10 02:29N 50°54' W 001°25'0 0.0
2019-Aug-10 01:59N 50°54' W 001°25'0 0.0
2019-Aug-10 01:29N 50°54' W 001°25'0 0.0
2019-Aug-10 00:56N 50°54' W 001°25'0 0.0
2019-Aug-10 00:29N 50°54' W 001°25'0 0.0
2019-Aug-09 23:59N 50°54' W 001°25'0 0.0
2019-Aug-09 23:30N 50°54' W 001°25'0 0.0
2019-Aug-09 22:59N 50°54' W 001°25'0 0.0
2019-Aug-09 22:29N 50°54' W 001°25'0 0.0
2019-Aug-09 21:59N 50°54' W 001°25'  

Dump ship's entire track history